Time;durP1;ratioP1;P1;durP2;ratioP2;P2;SDS_P1;SDS_P2;PMS_P1;PMS_P2;Temp;Humidity;BMP_temperature;BMP_pressure;BME280_temperature;BME280_humidity;BME280_pressure;Samples;Min_cycle;Max_cycle;Signal;HPM_P1;HPM_P2
2023/05/15 00:00:27;;;;;;;0.08;0.08;;;11.70;99.90;;;;;;6160873;23;20373;-89
2023/05/15 00:02:52;;;;;;;0.00;0.00;;;11.70;99.90;;;;;;6160867;23;20318;-88
2023/05/15 00:05:18;;;;;;;0.00;0.00;;;;;;;;;;6160408;23;20001;-87
2023/05/15 00:07:44;;;;;;;0.10;0.10;;;11.50;99.90;;;;;;6160825;23;20035;-88
2023/05/15 00:10:09;;;;;;;0.00;0.00;;;11.40;99.90;;;;;;6160636;23;20009;-89
2023/05/15 00:12:35;;;;;;;0.00;0.00;;;11.20;99.90;;;;;;6160604;23;20031;-89
2023/05/15 00:15:01;;;;;;;0.00;0.00;;;11.30;99.90;;;;;;6160747;23;20005;-88
2023/05/15 00:17:26;;;;;;;0.00;0.00;;;11.20;99.90;;;;;;6160395;23;20329;-88
2023/05/15 00:19:56;;;;;;;0.00;0.00;;;;;;;;;;6160103;23;20005;-87
2023/05/15 00:22:22;;;;;;;0.00;0.00;;;;;;;;;;6161026;23;20053;-87
2023/05/15 00:24:54;;;;;;;0.00;0.00;;;11.10;99.90;;;;;;6160446;23;20387;-88
2023/05/15 00:27:20;;;;;;;0.00;0.00;;;;;;;;;;6159163;23;20013;-88
2023/05/15 00:29:45;;;;;;;0.00;0.00;;;11.00;99.90;;;;;;6159350;23;20017;-89
2023/05/15 00:32:11;;;;;;;0.00;0.00;;;10.80;99.90;;;;;;6160186;23;20449;-87
2023/05/15 00:34:36;;;;;;;0.00;0.00;;;10.70;99.90;;;;;;6160844;23;20451;-89
2023/05/15 00:37:02;;;;;;;0.05;0.05;;;10.70;99.90;;;;;;6162936;23;20345;-88
2023/05/15 00:39:27;;;;;;;0.00;0.00;;;10.70;99.90;;;;;;6162848;23;20337;-89
2023/05/15 00:41:54;;;;;;;0.00;0.00;;;10.70;99.90;;;;;;6162902;23;20001;-89
2023/05/15 00:44:21;;;;;;;0.00;0.00;;;;;;;;;;6162476;23;20013;-88
2023/05/15 00:46:48;;;;;;;0.00;0.00;;;10.70;99.90;;;;;;6162075;23;20085;-88
2023/05/15 00:49:15;;;;;;;0.08;0.08;;;10.60;99.90;;;;;;6162844;23;20024;-88
2023/05/15 00:51:41;;;;;;;0.00;0.00;;;;;;;;;;6162492;23;20013;-89
2023/05/15 00:54:08;;;;;;;0.00;0.00;;;10.60;99.90;;;;;;6162170;23;20005;-89
2023/05/15 00:56:34;;;;;;;0.00;0.00;;;;;;;;;;6162894;23;20005;-89
2023/05/15 00:59:02;;;;;;;0.00;0.00;;;10.50;99.90;;;;;;6163345;23;20376;-89
2023/05/15 01:01:32;;;;;;;0.00;0.00;;;;;;;;;;6162954;23;20008;-90
2023/05/15 01:03:58;;;;;;;0.00;0.00;;;;;;;;;;6164486;23;20006;-89
2023/05/15 01:06:24;;;;;;;0.00;0.00;;;;;;;;;;6162748;23;20028;-88
2023/05/15 01:08:52;;;;;;;0.00;0.00;;;10.60;99.90;;;;;;6162678;23;19997;-88
2023/05/15 01:11:18;;;;;;;0.10;0.10;;;;;;;;;;6163212;23;20001;-89
2023/05/15 01:13:44;;;;;;;0.00;0.00;;;;;;;;;;6162532;23;20458;-89
2023/05/15 01:16:10;;;;;;;0.00;0.00;;;;;;;;;;6162027;23;20303;-89
2023/05/15 01:18:36;;;;;;;0.00;0.00;;;;;;;;;;6162332;23;20021;-89
2023/05/15 01:21:02;;;;;;;0.00;0.00;;;;;;;;;;6162572;23;20005;-89
2023/05/15 01:24:05;;;;;;;0.00;0.00;;;10.30;99.90;;;;;;6162695;23;20025;-89
2023/05/15 01:26:49;;;;;;;0.00;0.00;;;10.30;99.90;;;;;;6163235;23;20027;-89
2023/05/15 01:29:23;;;;;;;0.10;0.10;;;10.40;99.90;;;;;;6163357;23;20464;-90
2023/05/15 01:31:53;;;;;;;0.10;0.10;;;10.40;99.90;;;;;;6164094;23;20024;-89
2023/05/15 01:34:25;;;;;;;0.00;0.00;;;10.40;99.90;;;;;;6163706;23;20457;-89
2023/05/15 01:36:56;;;;;;;0.10;0.10;;;10.40;99.90;;;;;;6163901;23;20012;-90
2023/05/15 01:39:26;;;;;;;0.00;0.00;;;10.20;99.90;;;;;;6164040;23;20317;-89
2023/05/15 01:42:02;;;;;;;0.00;0.00;;;10.10;99.90;;;;;;6161990;23;20008;-88
2023/05/15 01:44:31;;;;;;;0.10;0.10;;;10.10;99.90;;;;;;6158252;23;20088;-87
2023/05/15 01:47:07;;;;;;;0.00;0.00;;;10.10;99.90;;;;;;6159145;23;20005;-88
2023/05/15 01:49:34;;;;;;;0.10;0.10;;;9.90;99.90;;;;;;6159050;23;20008;-88
2023/05/15 01:52:25;;;;;;;0.00;0.00;;;9.90;99.90;;;;;;6158399;23;20009;-88
2023/05/15 01:54:52;;;;;;;0.00;0.00;;;9.90;99.90;;;;;;6158586;23;20058;-88
2023/05/15 01:57:18;;;;;;;0.00;0.00;;;10.10;99.90;;;;;;6159248;23;20433;-87
2023/05/15 01:59:45;;;;;;;0.00;0.00;;;10.10;99.90;;;;;;6158318;23;20088;-88
2023/05/15 02:02:12;;;;;;;0.10;0.10;;;10.20;99.90;;;;;;6158654;23;20068;-87
2023/05/15 02:04:39;;;;;;;0.10;0.10;;;10.20;99.90;;;;;;6158650;23;20040;-87
2023/05/15 02:07:05;;;;;;;0.00;0.00;;;10.10;99.90;;;;;;6159077;23;20396;-88
2023/05/15 02:09:32;;;;;;;0.10;0.10;;;9.90;99.90;;;;;;6159228;23;20017;-88
2023/05/15 02:12:00;;;;;;;0.10;0.10;;;9.90;99.90;;;;;;6159205;23;20005;-89
2023/05/15 02:14:27;;;;;;;0.00;0.00;;;9.80;99.90;;;;;;6158840;23;20380;-87
2023/05/15 02:16:53;;;;;;;0.00;0.00;;;9.90;99.90;;;;;;6159059;23;20009;-88
2023/05/15 02:19:18;;;;;;;0.10;0.10;;;9.90;99.90;;;;;;6159143;23;20033;-88
2023/05/15 02:21:44;;;;;;;0.00;0.00;;;9.90;99.90;;;;;;6159197;23;20059;-88
2023/05/15 02:24:09;;;;;;;0.10;0.10;;;9.80;99.90;;;;;;6159321;23;20009;-88
2023/05/15 02:26:40;;;;;;;0.00;0.00;;;9.80;99.90;;;;;;6159009;23;20032;-88
2023/05/15 02:29:12;;;;;;;0.10;0.10;;;9.70;99.90;;;;;;6158962;23;20009;-89
2023/05/15 02:32:04;;;;;;;0.10;0.10;;;9.70;99.90;;;;;;6158997;23;20429;-87
2023/05/15 02:34:36;;;;;;;0.10;0.10;;;9.70;99.90;;;;;;6159499;23;20413;-89
2023/05/15 02:37:05;;;;;;;0.00;0.00;;;9.70;99.90;;;;;;6159399;23;20012;-88
2023/05/15 02:39:32;;;;;;;0.10;0.10;;;9.70;99.90;;;;;;6158992;23;20009;-90
2023/05/15 02:42:00;;;;;;;0.10;0.10;;;9.70;99.90;;;;;;6159112;23;20067;-88
2023/05/15 02:44:26;;;;;;;0.00;0.00;;;;;;;;;;6158541;23;20392;-88
2023/05/15 02:46:53;;;;;;;0.10;0.10;;;9.70;99.90;;;;;;6158511;23;20084;-88
2023/05/15 02:49:19;;;;;;;0.10;0.10;;;9.60;99.90;;;;;;6158913;23;20009;-89
2023/05/15 02:51:45;;;;;;;0.00;0.00;;;9.60;99.90;;;;;;6159355;23;20013;-88
2023/05/15 02:54:10;;;;;;;0.00;0.00;;;;;;;;;;6158618;23;20055;-89
2023/05/15 02:56:36;;;;;;;0.00;0.00;;;;;;;;;;6158888;23;20001;-88
2023/05/15 02:59:02;;;;;;;0.00;0.00;;;9.60;99.90;;;;;;6159205;23;20002;-88
2023/05/15 03:01:28;;;;;;;0.00;0.00;;;9.60;99.90;;;;;;6159146;23;20005;-87
2023/05/15 03:03:53;;;;;;;0.10;0.10;;;9.50;99.90;;;;;;6158605;23;20001;-87
2023/05/15 03:06:19;;;;;;;0.10;0.10;;;9.30;99.90;;;;;;6158812;23;20009;-88
2023/05/15 03:08:44;;;;;;;0.10;0.10;;;9.40;99.90;;;;;;6158944;23;20384;-89
2023/05/15 03:11:10;;;;;;;0.10;0.10;;;9.40;99.90;;;;;;6158600;23;20033;-89
2023/05/15 03:13:35;;;;;;;0.10;0.10;;;9.40;99.90;;;;;;6158520;23;20005;-88
2023/05/15 03:16:01;;;;;;;0.00;0.00;;;9.40;99.90;;;;;;6158317;23;20010;-88
2023/05/15 03:18:26;;;;;;;0.10;0.10;;;9.50;99.90;;;;;;6161200;23;20027;-88
2023/05/15 03:20:52;;;;;;;0.00;0.00;;;9.50;99.90;;;;;;6186958;23;20429;-88
2023/05/15 03:23:18;;;;;;;0.00;0.00;;;9.50;99.90;;;;;;6160562;23;20075;-88
2023/05/15 03:25:43;;;;;;;0.10;0.10;;;9.60;99.90;;;;;;6159957;23;20488;-88
2023/05/15 03:28:09;;;;;;;0.10;0.10;;;9.50;99.90;;;;;;6160408;23;20024;-88
2023/05/15 03:30:35;;;;;;;0.00;0.00;;;;;;;;;;6160759;23;20009;-88
2023/05/15 03:33:02;;;;;;;0.10;0.10;;;9.50;99.90;;;;;;6160833;23;20017;-88
2023/05/15 03:35:28;;;;;;;0.10;0.10;;;9.60;99.90;;;;;;6160867;23;20005;-88
2023/05/15 03:37:54;;;;;;;0.10;0.10;;;9.60;99.90;;;;;;6160470;23;20012;-88
2023/05/15 03:40:19;;;;;;;0.10;0.10;;;9.60;99.90;;;;;;6160315;23;20001;-88
2023/05/15 03:42:45;;;;;;;0.00;0.00;;;;;;;;;;6158884;23;20036;-90
2023/05/15 03:45:11;;;;;;;0.00;0.00;;;;;;;;;;6161582;23;20104;-89
2023/05/15 03:47:37;;;;;;;0.00;0.00;;;9.60;99.90;;;;;;6161322;23;20581;-89
2023/05/15 03:50:02;;;;;;;0.10;0.10;;;9.60;99.90;;;;;;6162045;23;20012;-89
2023/05/15 03:52:28;;;;;;;0.10;0.10;;;9.50;99.90;;;;;;6161846;23;20059;-89
2023/05/15 03:54:54;;;;;;;0.00;0.00;;;9.60;99.90;;;;;;6161480;23;20016;-89
2023/05/15 03:57:19;;;;;;;0.10;0.10;;;9.40;99.90;;;;;;6160894;23;20084;-89
2023/05/15 03:59:45;;;;;;;0.00;0.00;;;9.40;99.90;;;;;;6160956;23;20005;-89
2023/05/15 04:02:10;;;;;;;0.00;0.00;;;;;;;;;;6186805;23;20429;-89
2023/05/15 04:04:37;;;;;;;0.10;0.10;;;9.30;99.90;;;;;;6161233;23;20009;-89
2023/05/15 04:07:04;;;;;;;0.10;0.10;;;9.30;99.90;;;;;;6161597;23;20388;-88
2023/05/15 04:09:29;;;;;;;0.00;0.00;;;9.30;99.90;;;;;;6160735;23;20012;-88
2023/05/15 04:11:55;;;;;;;0.10;0.10;;;9.30;99.90;;;;;;6161104;23;20005;-88
2023/05/15 04:14:21;;;;;;;0.00;0.00;;;;;;;;;;6161450;23;20013;-88
2023/05/15 04:16:47;;;;;;;0.10;0.10;;;;;;;;;;6161051;23;20008;-88
2023/05/15 04:19:13;;;;;;;0.00;0.00;;;;;;;;;;6161575;23;20001;-88
2023/05/15 04:21:39;;;;;;;0.10;0.10;;;;;;;;;;6159451;23;20611;-88
2023/05/15 04:24:05;;;;;;;0.10;0.10;;;;;;;;;;6160090;23;20344;-87
2023/05/15 04:26:30;;;;;;;0.00;0.00;;;9.30;99.90;;;;;;6159785;23;20456;-87
2023/05/15 04:28:56;;;;;;;0.10;0.10;;;9.40;99.90;;;;;;6159894;23;20019;-87
2023/05/15 04:31:22;;;;;;;0.10;0.10;;;;;;;;;;6159905;23;20036;-88
2023/05/15 04:33:47;;;;;;;0.10;0.10;;;9.40;99.90;;;;;;6159761;23;20005;-88
2023/05/15 04:36:13;;;;;;;0.10;0.10;;;9.50;99.90;;;;;;6160022;23;19997;-88
2023/05/15 04:38:38;;;;;;;0.10;0.10;;;9.50;99.90;;;;;;6160041;23;20341;-88
2023/05/15 04:41:04;;;;;;;0.10;0.10;;;9.50;99.90;;;;;;6159626;23;20009;-88
2023/05/15 04:43:30;;;;;;;0.10;0.10;;;9.60;99.90;;;;;;6159601;23;20001;-90
2023/05/15 04:45:55;;;;;;;0.10;0.10;;;9.60;99.90;;;;;;6159598;23;20005;-88
2023/05/15 04:48:21;;;;;;;0.00;0.00;;;9.80;99.90;;;;;;6185977;23;20084;-88
2023/05/15 04:50:46;;;;;;;0.10;0.10;;;9.80;99.90;;;;;;6159842;23;20368;-87
2023/05/15 04:53:13;;;;;;;0.10;0.10;;;;;;;;;;6159708;23;20005;-88
2023/05/15 04:55:39;;;;;;;0.10;0.10;;;;;;;;;;6159989;23;20005;-88
2023/05/15 04:58:04;;;;;;;0.00;0.00;;;9.90;99.90;;;;;;6160697;23;20148;-88
2023/05/15 05:00:30;;;;;;;0.10;0.10;;;9.90;99.90;;;;;;6161336;23;20005;-88
2023/05/15 05:02:56;;;;;;;0.10;0.10;;;10.00;99.90;;;;;;6160639;23;20092;-88
2023/05/15 05:05:22;;;;;;;0.00;0.00;;;;;;;;;;6160468;23;19997;-88
2023/05/15 05:07:50;;;;;;;0.10;0.10;;;10.10;99.90;;;;;;6160256;23;20005;-88
2023/05/15 05:10:16;;;;;;;0.00;0.00;;;;;;;;;;6160067;23;20005;-88
2023/05/15 05:12:41;;;;;;;0.05;0.05;;;10.20;99.90;;;;;;6159559;23;20063;-87
2023/05/15 05:15:09;;;;;;;0.10;0.10;;;10.30;99.90;;;;;;6159509;23;20001;-88
2023/05/15 05:17:35;;;;;;;0.00;0.00;;;10.30;99.90;;;;;;6160049;23;20393;-86
2023/05/15 05:20:01;;;;;;;0.00;0.00;;;11.40;99.90;;;;;;6159532;23;20001;-87
2023/05/15 05:22:26;;;;;;;0.00;0.00;;;;;;;;;;6160220;23;20318;-88
2023/05/15 05:24:52;;;;;;;0.00;0.00;;;10.60;99.90;;;;;;6159374;23;20324;-88
2023/05/15 05:27:18;;;;;;;0.00;0.00;;;;;;;;;;6159572;23;20017;-88
2023/05/15 05:29:45;;;;;;;0.05;0.05;;;;;;;;;;6159725;23;20012;-88
2023/05/15 05:32:11;;;;;;;0.00;0.00;;;10.90;99.90;;;;;;6159875;23;20027;-87
2023/05/15 05:34:37;;;;;;;0.00;0.00;;;;;;;;;;6159236;23;20325;-88
2023/05/15 05:37:02;;;;;;;0.00;0.00;;;11.00;99.90;;;;;;6159480;23;20087;-88
2023/05/15 05:39:28;;;;;;;0.00;0.00;;;;;;;;;;6159497;23;20092;-89
2023/05/15 05:41:54;;;;;;;0.00;0.00;;;11.20;99.90;;;;;;6159864;23;20012;-88
2023/05/15 05:44:20;;;;;;;0.00;0.00;;;;;;;;;;6159911;23;20572;-89
2023/05/15 05:46:45;;;;;;;0.10;0.10;;;;;;;;;;6159765;23;20001;-88
2023/05/15 05:49:11;;;;;;;0.00;0.00;;;12.10;99.90;;;;;;6159548;23;20015;-88
2023/05/15 05:51:37;;;;;;;0.00;0.00;;;12.10;99.90;;;;;;6159324;23;20001;-87
2023/05/15 05:54:03;;;;;;;0.10;0.10;;;12.10;99.90;;;;;;6158894;23;20036;-88
2023/05/15 05:56:28;;;;;;;0.00;0.00;;;13.60;99.90;;;;;;6158792;23;20009;-88
2023/05/15 05:58:55;;;;;;;0.03;0.03;;;12.00;99.90;;;;;;6159235;23;20055;-88
2023/05/15 06:01:21;;;;;;;0.10;0.10;;;12.30;99.90;;;;;;6159116;23;20088;-87
2023/05/15 06:03:46;;;;;;;0.00;0.00;;;12.20;99.90;;;;;;6159162;23;20083;-87
2023/05/15 06:06:12;;;;;;;0.00;0.00;;;;;;;;;;6158901;23;20012;-88
2023/05/15 06:08:38;;;;;;;0.00;0.00;;;12.00;99.90;;;;;;6158828;23;20005;-88
2023/05/15 06:11:04;;;;;;;0.00;0.00;;;12.00;99.90;;;;;;6159054;23;20073;-87
2023/05/15 06:13:29;;;;;;;0.00;0.00;;;12.10;99.90;;;;;;6185484;23;20001;-88
2023/05/15 06:15:55;;;;;;;0.00;0.00;;;12.10;99.90;;;;;;6158702;23;20064;-88
2023/05/15 06:18:21;;;;;;;0.10;0.10;;;;;;;;;;6159317;23;20437;-88
2023/05/15 06:20:46;;;;;;;0.00;0.00;;;12.20;99.90;;;;;;6158991;23;20036;-87
2023/05/15 06:23:12;;;;;;;0.00;0.00;;;12.30;99.90;;;;;;6159322;23;20067;-88
2023/05/15 06:25:37;;;;;;;0.00;0.00;;;12.40;99.90;;;;;;6158992;23;20448;-88
2023/05/15 06:28:03;;;;;;;0.00;0.00;;;12.40;99.90;;;;;;6158657;23;20016;-88
2023/05/15 06:30:29;;;;;;;0.00;0.00;;;12.80;99.90;;;;;;6158550;23;20092;-89
2023/05/15 06:32:55;;;;;;;0.00;0.00;;;;;;;;;;6158551;23;20500;-87
2023/05/15 06:35:22;;;;;;;0.00;0.00;;;13.00;99.90;;;;;;6159684;23;20012;-87
2023/05/15 06:37:49;;;;;;;0.00;0.00;;;13.10;99.90;;;;;;6158767;23;20032;-87
2023/05/15 06:40:15;;;;;;;0.00;0.00;;;13.40;99.90;;;;;;6158325;23;20001;-87
2023/05/15 06:42:41;;;;;;;0.00;0.00;;;13.60;99.90;;;;;;6159329;23;20088;-88
2023/05/15 06:45:07;;;;;;;0.00;0.00;;;13.80;99.90;;;;;;6158586;23;20496;-87
2023/05/15 06:47:33;;;;;;;0.00;0.00;;;13.60;99.90;;;;;;6158973;23;20013;-87
2023/05/15 06:49:58;;;;;;;0.00;0.00;;;;;;;;;;6158050;23;20433;-88
2023/05/15 06:52:24;;;;;;;0.08;0.08;;;13.70;99.90;;;;;;6158693;23;20055;-87
2023/05/15 06:54:50;;;;;;;0.00;0.00;;;13.90;99.90;;;;;;6158362;23;20005;-88
2023/05/15 06:57:17;;;;;;;0.00;0.00;;;13.70;99.90;;;;;;6185040;23;20005;-87
2023/05/15 06:59:43;;;;;;;0.00;0.00;;;13.90;99.90;;;;;;6156419;23;20015;-87
2023/05/15 07:02:08;;;;;;;0.00;0.00;;;14.20;99.90;;;;;;6158271;23;20029;-88
2023/05/15 07:04:34;;;;;;;0.00;0.00;;;14.10;99.90;;;;;;6157841;23;20108;-87
2023/05/15 07:06:59;;;;;;;0.00;0.00;;;14.10;99.90;;;;;;6158497;23;20021;-87
2023/05/15 07:09:25;;;;;;;0.05;0.05;;;14.10;99.90;;;;;;6158936;23;20043;-88
2023/05/15 07:11:50;;;;;;;0.00;0.00;;;14.30;99.90;;;;;;6158648;23;20063;-87
2023/05/15 07:14:16;;;;;;;0.00;0.00;;;14.40;99.90;;;;;;6158866;23;20013;-87
2023/05/15 07:16:41;;;;;;;0.00;0.00;;;14.40;99.90;;;;;;6158790;23;20009;-87
2023/05/15 07:19:08;;;;;;;0.00;0.00;;;14.40;99.90;;;;;;6159040;23;20453;-86
2023/05/15 07:21:33;;;;;;;0.00;0.00;;;14.40;99.90;;;;;;6158686;23;20061;-87
2023/05/15 07:23:59;;;;;;;0.00;0.00;;;;;;;;;;6158662;23;20005;-87
2023/05/15 07:26:25;;;;;;;0.00;0.00;;;14.60;99.90;;;;;;6158683;23;20009;-88
2023/05/15 07:28:51;;;;;;;0.00;0.00;;;;;;;;;;6158844;23;20005;-87
2023/05/15 07:31:16;;;;;;;0.00;0.00;;;14.90;99.90;;;;;;6159006;23;20497;-86
2023/05/15 07:33:42;;;;;;;0.00;0.00;;;;;;;;;;6158810;23;20459;-87
2023/05/15 07:36:08;;;;;;;0.00;0.00;;;14.90;99.90;;;;;;6158634;23;20048;-87
2023/05/15 07:38:33;;;;;;;0.00;0.00;;;14.90;99.90;;;;;;6158412;23;20079;-87
2023/05/15 07:40:59;;;;;;;0.00;0.00;;;;;;;;;;6156300;23;20381;-88
2023/05/15 07:43:25;;;;;;;0.00;0.00;;;15.60;99.90;;;;;;6158980;23;20087;-88
2023/05/15 07:45:50;;;;;;;0.00;0.00;;;15.40;99.90;;;;;;6185483;23;20076;-88
2023/05/15 07:48:19;;;;;;;0.00;0.00;;;15.70;99.90;;;;;;6158915;23;20468;-86
2023/05/15 07:50:46;;;;;;;0.00;0.00;;;15.70;99.90;;;;;;6158559;23;20388;-88
2023/05/15 07:53:12;;;;;;;0.00;0.00;;;15.70;99.90;;;;;;6158989;23;20012;-88
2023/05/15 07:55:39;;;;;;;0.00;0.00;;;15.40;99.90;;;;;;6158425;23;20009;-91
2023/05/15 07:58:05;;;;;;;0.00;0.00;;;15.30;99.90;;;;;;6183516;23;20012;-87
2023/05/15 08:00:30;;;;;;;0.00;0.00;;;15.20;99.90;;;;;;6158678;23;20009;-87
2023/05/15 08:02:56;;;;;;;0.00;0.00;;;15.30;99.90;;;;;;6159515;23;20084;-86
2023/05/15 08:05:21;;;;;;;0.00;0.00;;;15.50;99.90;;;;;;6160591;23;20008;-89
2023/05/15 08:07:47;;;;;;;0.00;0.00;;;15.40;99.90;;;;;;6184366;23;20000;-88
2023/05/15 08:10:12;;;;;;;0.00;0.00;;;;;;;;;;6159298;23;20005;-88
2023/05/15 08:12:44;;;;;;;0.00;0.00;;;15.70;99.90;;;;;;6160106;23;20031;-88
2023/05/15 08:15:10;;;;;;;0.00;0.00;;;16.10;99.90;;;;;;6159859;23;20341;-87
2023/05/15 08:17:35;;;;;;;0.00;0.00;;;16.00;99.90;;;;;;6159553;23;20005;-88
2023/05/15 08:20:02;;;;;;;0.00;0.00;;;16.00;99.90;;;;;;6159587;23;19997;-88
2023/05/15 08:22:29;;;;;;;0.00;0.00;;;16.10;99.90;;;;;;6184537;23;20011;-86
2023/05/15 08:24:54;;;;;;;0.00;0.00;;;16.50;99.90;;;;;;6160010;23;20011;-88
2023/05/15 08:27:20;;;;;;;0.00;0.00;;;16.50;99.90;;;;;;6159874;23;20088;-88
2023/05/15 08:29:46;;;;;;;0.00;0.00;;;17.20;99.90;;;;;;6160115;23;20016;-88
2023/05/15 08:32:13;;;;;;;0.00;0.00;;;16.40;99.90;;;;;;6159767;23;20016;-88
2023/05/15 08:34:38;;;;;;;0.00;0.00;;;16.60;99.90;;;;;;6159431;23;20005;-88
2023/05/15 08:37:05;;;;;;;0.00;0.00;;;16.40;99.90;;;;;;6159665;23;20031;-87
2023/05/15 08:39:30;;;;;;;0.00;0.00;;;16.50;99.90;;;;;;6184698;23;20051;-87
2023/05/15 08:42:19;;;;;;;0.00;0.00;;;16.80;99.90;;;;;;6159646;23;20380;-87
2023/05/15 08:44:45;;;;;;;0.00;0.00;;;17.20;99.90;;;;;;6159010;23;20005;-88
2023/05/15 08:47:12;;;;;;;0.00;0.00;;;17.10;99.90;;;;;;6152817;23;20460;-88
2023/05/15 08:50:00;;;;;;;0.00;0.00;;;17.20;99.90;;;;;;6157759;23;20390;-90
2023/05/15 08:52:26;;;;;;;0.00;0.00;;;17.20;99.90;;;;;;6159251;23;20012;-88
2023/05/15 08:54:53;;;;;;;0.00;0.00;;;17.10;99.90;;;;;;6159431;23;20005;-89
2023/05/15 08:57:18;;;;;;;0.00;0.00;;;17.30;99.90;;;;;;6159143;23;20013;-87
2023/05/15 08:59:45;;;;;;;0.00;0.00;;;17.20;99.90;;;;;;6158757;23;20464;-88
2023/05/15 09:02:10;;;;;;;0.00;0.00;;;17.80;99.90;;;;;;6158963;23;20001;-88
2023/05/15 09:04:36;;;;;;;0.00;0.00;;;17.70;99.90;;;;;;6158769;23;20685;-87
2023/05/15 09:07:02;;;;;;;0.00;0.00;;;17.80;99.90;;;;;;6158817;23;20258;-87
2023/05/15 09:09:31;;;;;;;0.00;0.00;;;17.80;99.90;;;;;;6158827;23;20009;-88
2023/05/15 09:11:59;;;;;;;0.00;0.00;;;17.20;99.90;;;;;;6159344;23;20013;-87
2023/05/15 09:14:24;;;;;;;0.00;0.00;;;17.10;99.90;;;;;;6157774;23;20564;-87
2023/05/15 09:16:52;;;;;;;0.00;0.00;;;17.30;99.90;;;;;;6158124;23;20089;-87
2023/05/15 09:19:19;;;;;;;0.00;0.00;;;17.60;99.90;;;;;;6157696;23;20029;-87
2023/05/15 09:21:45;;;;;;;0.00;0.00;;;18.00;99.90;;;;;;6157993;23;20008;-87
2023/05/15 09:24:25;;;;;;;0.00;0.00;;;18.10;99.90;;;;;;6159245;23;20005;-88
2023/05/15 09:27:05;;;;;;;0.00;0.00;;;18.30;99.90;;;;;;6157091;23;20016;-87
2023/05/15 09:29:31;;;;;;;0.00;0.00;;;18.10;99.90;;;;;;6158849;23;20001;-87
2023/05/15 09:32:08;;;;;;;0.00;0.00;;;18.00;99.90;;;;;;6158152;23;20005;-86
2023/05/15 09:34:36;;;;;;;0.00;0.00;;;17.70;99.90;;;;;;6159148;23;20008;-87
2023/05/15 09:37:05;;;;;;;0.00;0.00;;;17.80;99.90;;;;;;6157577;23;20017;-87
2023/05/15 09:39:30;;;;;;;0.00;0.00;;;18.20;99.90;;;;;;6159256;23;20005;-87
2023/05/15 09:42:06;;;;;;;0.00;0.00;;;18.50;99.90;;;;;;6158894;23;20388;-87
2023/05/15 09:44:33;;;;;;;0.00;0.00;;;18.40;99.90;;;;;;6156812;23;19993;-88
2023/05/15 09:46:59;;;;;;;0.00;0.00;;;18.60;99.90;;;;;;6159146;23;20349;-86
2023/05/15 09:49:30;;;;;;;0.00;0.00;;;18.30;99.90;;;;;;6159341;23;20035;-88
2023/05/15 09:52:00;;;;;;;0.00;0.00;;;18.10;99.90;;;;;;6158018;23;20140;-89
2023/05/15 09:54:26;;;;;;;0.00;0.00;;;18.10;99.90;;;;;;6158782;23;20005;-87
2023/05/15 09:56:52;;;;;;;0.00;0.00;;;18.50;99.90;;;;;;6157374;23;20023;-90
2023/05/15 09:59:20;;;;;;;0.00;0.00;;;18.60;99.90;;;;;;6158782;23;20001;-88
2023/05/15 10:01:48;;;;;;;0.00;0.00;;;18.30;99.90;;;;;;6158408;23;20005;-88
2023/05/15 10:04:14;;;;;;;0.00;0.00;;;18.40;99.90;;;;;;6157777;23;20005;-88
2023/05/15 10:06:41;;;;;;;0.00;0.00;;;18.60;99.90;;;;;;6158645;23;20148;-87
2023/05/15 10:09:09;;;;;;;0.00;0.00;;;18.60;99.90;;;;;;6157804;23;20004;-87
2023/05/15 10:11:36;;;;;;;0.00;0.00;;;18.60;99.90;;;;;;6158958;23;20001;-87
2023/05/15 10:14:06;;;;;;;0.00;0.00;;;18.80;99.90;;;;;;6158309;23;20005;-89
2023/05/15 10:16:37;;;;;;;0.00;0.00;;;18.90;99.90;;;;;;6157936;23;20005;-89
2023/05/15 10:19:04;;;;;;;0.00;0.00;;;19.00;99.90;;;;;;6158382;23;19997;-87
2023/05/15 10:21:36;;;;;;;0.00;0.00;;;19.10;99.90;;;;;;6158250;23;20024;-88
2023/05/15 10:24:03;;;;;;;0.00;0.00;;;18.80;99.90;;;;;;6158566;23;20053;-89
2023/05/15 10:26:38;;;;;;;0.00;0.00;;;18.50;99.90;;;;;;6184914;23;20341;-89
2023/05/15 10:29:12;;;;;;;0.00;0.00;;;18.70;99.90;;;;;;6157362;23;20084;-89
2023/05/15 10:31:41;;;;;;;0.00;0.00;;;18.80;99.90;;;;;;6159022;23;20008;-88
2023/05/15 10:34:08;;;;;;;0.00;0.00;;;18.80;99.90;;;;;;6157792;23;20012;-88
2023/05/15 10:36:37;;;;;;;0.00;0.00;;;18.60;99.30;;;;;;6157938;23;20083;-89
2023/05/15 10:39:07;;;;;;;0.00;0.00;;;18.60;99.50;;;;;;6158122;23;20012;-90
2023/05/15 10:41:35;;;;;;;;;;;18.60;99.90;;;;;;6159330;23;20001;-89
2023/05/15 10:44:01;;;;;;;0.00;0.00;;;20.50;99.90;;;;;;6158345;23;19911;-89
2023/05/15 10:46:33;;;;;;;0.00;0.00;;;19.20;99.40;;;;;;6158534;23;20005;-88
2023/05/15 10:49:00;;;;;;;0.00;0.00;;;19.00;99.20;;;;;;6157717;23;20009;-86
2023/05/15 10:51:28;;;;;;;0.00;0.00;;;19.00;99.80;;;;;;6158512;23;20009;-89
2023/05/15 10:53:54;;;;;;;0.00;0.00;;;19.00;99.50;;;;;;6158161;23;20009;-89
2023/05/15 10:56:24;;;;;;;0.00;0.00;;;18.60;99.00;;;;;;6157549;23;20012;-89
2023/05/15 10:58:51;;;;;;;0.00;0.00;;;18.60;98.80;;;;;;6158192;23;20017;-90
2023/05/15 11:01:48;;;;;;;0.00;0.00;;;19.10;97.70;;;;;;6158292;23;20340;-89
2023/05/15 11:04:16;;;;;;;0.00;0.00;;;19.10;97.90;;;;;;6135524;23;20013;-90
2023/05/15 11:06:46;;;;;;;0.00;0.00;;;18.70;99.20;;;;;;6157657;23;20342;-90
2023/05/15 11:09:21;;;;;;;0.00;0.00;;;18.70;99.40;;;;;;6157409;23;20432;-89
2023/05/15 11:11:55;;;;;;;0.00;0.00;;;19.10;97.20;;;;;;6157387;23;20390;-87
2023/05/15 11:14:25;;;;;;;0.00;0.00;;;19.40;96.50;;;;;;6157355;23;20012;-87
2023/05/15 11:16:54;;;;;;;0.00;0.00;;;19.60;96.90;;;;;;6158325;23;20013;-87
2023/05/15 11:19:36;;;;;;;0.00;0.00;;;19.70;96.30;;;;;;6157139;23;20075;-87
2023/05/15 11:22:14;;;;;;;0.00;0.00;;;19.30;97.10;;;;;;6158649;23;20012;-87
2023/05/15 11:25:08;;;;;;;0.00;0.00;;;19.60;98.10;;;;;;6157837;23;20081;-89
2023/05/15 11:27:36;;;;;;;0.00;0.00;;;19.50;94.20;;;;;;6154098;23;20066;-88
2023/05/15 11:30:13;;;;;;;0.00;0.00;;;19.40;94.40;;;;;;6158297;23;20008;-86
2023/05/15 11:32:58;;;;;;;0.00;0.00;;;19.40;93.80;;;;;;6158266;23;20318;-88
2023/05/15 11:35:27;;;;;;;0.00;0.00;;;19.70;94.40;;;;;;6157908;23;20005;-86
2023/05/15 11:37:55;;;;;;;0.00;0.00;;;19.80;94.40;;;;;;6158517;23;20068;-87
2023/05/15 11:40:24;;;;;;;0.00;0.00;;;20.00;94.70;;;;;;6159980;23;20039;-91
2023/05/15 11:43:15;;;;;;;0.00;0.00;;;20.40;94.40;;;;;;6160261;23;19997;-88
2023/05/15 11:45:44;;;;;;;0.00;0.00;;;20.30;93.20;;;;;;6159561;23;20088;-88
2023/05/15 11:48:13;;;;;;;0.00;0.00;;;20.10;94.30;;;;;;6160016;23;20012;-88
2023/05/15 11:50:42;;;;;;;0.00;0.00;;;20.10;94.50;;;;;;6158902;23;20009;-88
2023/05/15 11:53:09;;;;;;;0.00;0.00;;;20.20;95.40;;;;;;6159948;23;20009;-88
2023/05/15 11:55:40;;;;;;;0.00;0.00;;;20.40;94.40;;;;;;6159131;23;20016;-87
2023/05/15 11:58:10;;;;;;;0.00;0.00;;;20.20;94.50;;;;;;6159984;23;20001;-87
2023/05/15 12:00:36;;;;;;;0.00;0.00;;;20.10;94.20;;;;;;6159458;23;20005;-89
2023/05/15 12:03:05;;;;;;;0.00;0.00;;;20.30;94.60;;;;;;6159141;23;20439;-89
2023/05/15 12:05:30;;;;;;;0.00;0.00;;;20.20;94.70;;;;;;6158410;23;20001;-90
2023/05/15 12:07:56;;;;;;;0.00;0.00;;;20.20;95.50;;;;;;6185289;23;20012;-86
2023/05/15 12:10:22;;;;;;;0.00;0.00;;;20.10;95.40;;;;;;6158799;23;20013;-87
2023/05/15 12:12:48;;;;;;;0.00;0.00;;;;;;;;;;6158104;23;20533;-89
2023/05/15 12:15:15;;;;;;;0.00;0.00;;;19.10;98.20;;;;;;6157597;23;20005;-87
2023/05/15 12:17:42;;;;;;;0.00;0.00;;;19.10;98.20;;;;;;6158292;23;20013;-89
2023/05/15 12:20:11;;;;;;;0.00;0.00;;;19.20;98.10;;;;;;6158863;23;20080;-89
2023/05/15 12:22:37;;;;;;;0.00;0.00;;;19.30;99.10;;;;;;6157366;23;20009;-87
2023/05/15 12:25:05;;;;;;;0.00;0.00;;;19.20;99.90;;;;;;6159238;23;20001;-89
2023/05/15 12:27:31;;;;;;;0.00;0.00;;;19.30;98.20;;;;;;6159419;23;20228;-87
2023/05/15 12:29:57;;;;;;;0.00;0.00;;;19.10;98.70;;;;;;6158886;23;20608;-88
2023/05/15 12:32:23;;;;;;;0.00;0.00;;;;;;;;;;6159873;23;20032;-88
2023/05/15 12:34:48;;;;;;;0.00;0.00;;;19.10;98.10;;;;;;6159088;23;20009;-89
2023/05/15 12:37:14;;;;;;;0.00;0.00;;;19.00;99.30;;;;;;6159392;23;20013;-89
2023/05/15 12:39:54;;;;;;;0.00;0.00;;;19.20;99.80;;;;;;6160071;23;20059;-89
2023/05/15 12:42:19;;;;;;;0.00;0.00;;;19.00;99.00;;;;;;6160298;23;20576;-88
2023/05/15 12:44:45;;;;;;;0.00;0.00;;;;;;;;;;6159456;23;20059;-87
2023/05/15 12:47:14;;;;;;;0.00;0.00;;;18.90;97.90;;;;;;6159400;23;20036;-87
2023/05/15 12:49:41;;;;;;;0.00;0.00;;;18.90;99.30;;;;;;6159660;23;20435;-87
2023/05/15 12:52:10;;;;;;;0.00;0.00;;;19.10;98.50;;;;;;6158854;23;20028;-88
2023/05/15 12:54:43;;;;;;;0.00;0.00;;;19.40;98.40;;;;;;6184944;23;20008;-87
2023/05/15 12:57:12;;;;;;;0.00;0.00;;;19.50;99.70;;;;;;6159314;23;20335;-88
2023/05/15 12:59:39;;;;;;;0.00;0.00;;;19.60;99.90;;;;;;6160128;23;20436;-87
2023/05/15 13:02:09;;;;;;;0.00;0.00;;;19.80;99.20;;;;;;6159523;23;20029;-88
2023/05/15 13:04:34;;;;;;;0.00;0.00;;;19.80;99.00;;;;;;6159849;23;20009;-87
2023/05/15 13:07:00;;;;;;;0.00;0.00;;;19.70;98.80;;;;;;6158529;23;20012;-89